sensor_id;sensor_type;location;lat;lon;timestamp;temperature;humidity
39067;DHT22;24821;51.988;6.020;2022-10-16T00:01:58;13.60;99.90
39067;DHT22;24821;51.988;6.020;2022-10-16T00:04:23;13.50;99.90
39067;DHT22;24821;51.988;6.020;2022-10-16T00:06:49;13.50;99.90
39067;DHT22;24821;51.988;6.020;2022-10-16T00:09:14;13.50;99.90
39067;DHT22;24821;51.988;6.020;2022-10-16T00:11:40;13.50;99.90
39067;DHT22;24821;51.988;6.020;2022-10-16T00:14:10;13.50;99.90
39067;DHT22;24821;51.988;6.020;2022-10-16T00:16:36;13.50;99.90
39067;DHT22;24821;51.988;6.020;2022-10-16T00:19:03;13.60;99.90
39067;DHT22;24821;51.988;6.020;2022-10-16T00:21:30;13.60;99.90
39067;DHT22;24821;51.988;6.020;2022-10-16T00:23:58;13.60;99.90
39067;DHT22;24821;51.988;6.020;2022-10-16T00:26:26;13.50;99.90
39067;DHT22;24821;51.988;6.020;2022-10-16T00:28:52;13.50;99.90
39067;DHT22;24821;51.988;6.020;2022-10-16T00:31:20;13.50;99.90
39067;DHT22;24821;51.988;6.020;2022-10-16T00:33:46;13.50;99.90
39067;DHT22;24821;51.988;6.020;2022-10-16T00:36:14;13.50;99.90
39067;DHT22;24821;51.988;6.020;2022-10-16T00:38:40;13.60;99.90
39067;DHT22;24821;51.988;6.020;2022-10-16T00:41:09;13.50;99.90
39067;DHT22;24821;51.988;6.020;2022-10-16T00:43:41;13.60;99.90
39067;DHT22;24821;51.988;6.020;2022-10-16T00:46:17;13.60;99.90
39067;DHT22;24821;51.988;6.020;2022-10-16T00:48:57;13.60;99.90
39067;DHT22;24821;51.988;6.020;2022-10-16T00:51:34;13.60;99.90
39067;DHT22;24821;51.988;6.020;2022-10-16T00:54:01;13.50;99.90
39067;DHT22;24821;51.988;6.020;2022-10-16T00:56:27;13.50;99.90
39067;DHT22;24821;51.988;6.020;2022-10-16T00:58:53;13.60;99.90
39067;DHT22;24821;51.988;6.020;2022-10-16T01:01:18;13.50;99.90
39067;DHT22;24821;51.988;6.020;2022-10-16T01:03:44;13.50;99.90
39067;DHT22;24821;51.988;6.020;2022-10-16T01:06:19;13.50;99.90
39067;DHT22;24821;51.988;6.020;2022-10-16T01:08:58;13.50;99.90
39067;DHT22;24821;51.988;6.020;2022-10-16T01:14:03;13.50;99.90
39067;DHT22;24821;51.988;6.020;2022-10-16T01:19:09;13.50;99.90
39067;DHT22;24821;51.988;6.020;2022-10-16T01:21:41;13.50;99.90
39067;DHT22;24821;51.988;6.020;2022-10-16T01:32:31;13.40;99.90
39067;DHT22;24821;51.988;6.020;2022-10-16T01:35:14;13.50;99.90
39067;DHT22;24821;51.988;6.020;2022-10-16T01:37:46;13.50;99.90
39067;DHT22;24821;51.988;6.020;2022-10-16T01:40:16;13.40;99.90
39067;DHT22;24821;51.988;6.020;2022-10-16T01:42:46;13.40;99.90
39067;DHT22;24821;51.988;6.020;2022-10-16T01:45:15;13.40;99.90
39067;DHT22;24821;51.988;6.020;2022-10-16T01:47:43;13.40;99.90
39067;DHT22;24821;51.988;6.020;2022-10-16T01:50:09;13.40;99.90
39067;DHT22;24821;51.988;6.020;2022-10-16T01:52:38;13.40;99.90
39067;DHT22;24821;51.988;6.020;2022-10-16T01:55:07;13.40;99.90
39067;DHT22;24821;51.988;6.020;2022-10-16T01:57:36;13.50;99.90
39067;DHT22;24821;51.988;6.020;2022-10-16T02:00:08;13.50;99.90
39067;DHT22;24821;51.988;6.020;2022-10-16T02:02:35;13.50;99.90
39067;DHT22;24821;51.988;6.020;2022-10-16T02:05:10;13.50;99.90
39067;DHT22;24821;51.988;6.020;2022-10-16T02:07:38;13.60;99.90
39067;DHT22;24821;51.988;6.020;2022-10-16T02:10:04;13.60;99.90
39067;DHT22;24821;51.988;6.020;2022-10-16T02:12:33;13.60;99.90
39067;DHT22;24821;51.988;6.020;2022-10-16T02:14:59;13.60;99.90
39067;DHT22;24821;51.988;6.020;2022-10-16T02:17:25;13.60;99.90
39067;DHT22;24821;51.988;6.020;2022-10-16T02:19:53;13.60;99.90
39067;DHT22;24821;51.988;6.020;2022-10-16T02:22:28;13.60;99.90
39067;DHT22;24821;51.988;6.020;2022-10-16T02:25:22;13.60;99.90
39067;DHT22;24821;51.988;6.020;2022-10-16T02:30:59;13.60;99.90
39067;DHT22;24821;51.988;6.020;2022-10-16T02:33:28;13.70;99.90
39067;DHT22;24821;51.988;6.020;2022-10-16T02:35:54;13.70;99.90
39067;DHT22;24821;51.988;6.020;2022-10-16T02:38:21;13.70;99.90
39067;DHT22;24821;51.988;6.020;2022-10-16T02:40:48;13.70;99.90
39067;DHT22;24821;51.988;6.020;2022-10-16T02:43:14;13.70;99.90
39067;DHT22;24821;51.988;6.020;2022-10-16T02:45:40;13.70;99.90
39067;DHT22;24821;51.988;6.020;2022-10-16T02:48:06;13.70;99.90
39067;DHT22;24821;51.988;6.020;2022-10-16T02:50:32;13.70;99.90
39067;DHT22;24821;51.988;6.020;2022-10-16T02:52:57;13.70;99.90
39067;DHT22;24821;51.988;6.020;2022-10-16T02:55:23;13.70;99.90
39067;DHT22;24821;51.988;6.020;2022-10-16T02:57:48;13.70;99.90
39067;DHT22;24821;51.988;6.020;2022-10-16T03:00:16;13.60;99.90
39067;DHT22;24821;51.988;6.020;2022-10-16T03:02:43;13.60;99.90
39067;DHT22;24821;51.988;6.020;2022-10-16T03:05:09;13.60;99.90
39067;DHT22;24821;51.988;6.020;2022-10-16T03:07:35;13.60;99.90
39067;DHT22;24821;51.988;6.020;2022-10-16T03:10:01;13.60;99.90
39067;DHT22;24821;51.988;6.020;2022-10-16T03:12:27;13.60;99.90
39067;DHT22;24821;51.988;6.020;2022-10-16T03:14:53;13.50;99.90
39067;DHT22;24821;51.988;6.020;2022-10-16T03:17:18;13.50;99.90
39067;DHT22;24821;51.988;6.020;2022-10-16T03:19:44;13.50;99.90
39067;DHT22;24821;51.988;6.020;2022-10-16T03:22:10;13.50;99.90
39067;DHT22;24821;51.988;6.020;2022-10-16T03:24:35;13.50;99.90
39067;DHT22;24821;51.988;6.020;2022-10-16T03:27:01;13.50;99.90
39067;DHT22;24821;51.988;6.020;2022-10-16T03:29:27;13.50;99.90
39067;DHT22;24821;51.988;6.020;2022-10-16T03:31:55;13.50;99.90
39067;DHT22;24821;51.988;6.020;2022-10-16T03:34:20;13.50;99.90
39067;DHT22;24821;51.988;6.020;2022-10-16T03:36:46;13.50;99.90
39067;DHT22;24821;51.988;6.020;2022-10-16T03:39:11;13.60;99.90
39067;DHT22;24821;51.988;6.020;2022-10-16T03:41:37;13.60;99.90
39067;DHT22;24821;51.988;6.020;2022-10-16T03:44:02;13.50;99.90
39067;DHT22;24821;51.988;6.020;2022-10-16T03:46:28;13.60;99.90
39067;DHT22;24821;51.988;6.020;2022-10-16T03:48:54;13.60;99.90
39067;DHT22;24821;51.988;6.020;2022-10-16T03:51:20;13.60;99.90
39067;DHT22;24821;51.988;6.020;2022-10-16T03:53:45;13.60;99.90
39067;DHT22;24821;51.988;6.020;2022-10-16T03:56:11;13.60;99.90
39067;DHT22;24821;51.988;6.020;2022-10-16T03:58:36;13.60;99.90
39067;DHT22;24821;51.988;6.020;2022-10-16T04:01:02;13.60;99.90
39067;DHT22;24821;51.988;6.020;2022-10-16T04:03:27;13.60;99.90
39067;DHT22;24821;51.988;6.020;2022-10-16T04:05:53;13.60;99.90
39067;DHT22;24821;51.988;6.020;2022-10-16T04:08:19;13.60;99.90
39067;DHT22;24821;51.988;6.020;2022-10-16T04:10:45;13.60;99.90
39067;DHT22;24821;51.988;6.020;2022-10-16T04:13:11;13.60;99.90
39067;DHT22;24821;51.988;6.020;2022-10-16T04:15:37;13.60;99.90
39067;DHT22;24821;51.988;6.020;2022-10-16T04:18:03;13.60;99.90
39067;DHT22;24821;51.988;6.020;2022-10-16T04:20:29;13.70;99.90
39067;DHT22;24821;51.988;6.020;2022-10-16T04:22:55;13.70;99.90
39067;DHT22;24821;51.988;6.020;2022-10-16T04:25:21;13.70;99.90
39067;DHT22;24821;51.988;6.020;2022-10-16T04:27:47;13.70;99.90
39067;DHT22;24821;51.988;6.020;2022-10-16T04:30:12;13.70;99.90
39067;DHT22;24821;51.988;6.020;2022-10-16T04:32:38;13.80;99.90
39067;DHT22;24821;51.988;6.020;2022-10-16T04:35:04;13.80;99.90
39067;DHT22;24821;51.988;6.020;2022-10-16T04:37:29;13.80;99.90
39067;DHT22;24821;51.988;6.020;2022-10-16T04:39:55;13.90;99.90
39067;DHT22;24821;51.988;6.020;2022-10-16T04:42:21;13.80;99.90
39067;DHT22;24821;51.988;6.020;2022-10-16T04:44:46;13.80;99.90
39067;DHT22;24821;51.988;6.020;2022-10-16T04:47:12;13.80;99.90
39067;DHT22;24821;51.988;6.020;2022-10-16T04:49:38;13.80;99.90
39067;DHT22;24821;51.988;6.020;2022-10-16T04:52:03;13.80;99.90
39067;DHT22;24821;51.988;6.020;2022-10-16T04:54:29;13.80;99.90
39067;DHT22;24821;51.988;6.020;2022-10-16T04:56:55;13.70;99.90
39067;DHT22;24821;51.988;6.020;2022-10-16T04:59:20;13.70;99.90
39067;DHT22;24821;51.988;6.020;2022-10-16T05:01:46;13.70;99.90
39067;DHT22;24821;51.988;6.020;2022-10-16T05:04:12;13.70;99.90
39067;DHT22;24821;51.988;6.020;2022-10-16T05:06:38;13.70;99.90
39067;DHT22;24821;51.988;6.020;2022-10-16T05:09:07;13.60;99.90
39067;DHT22;24821;51.988;6.020;2022-10-16T05:11:34;13.60;99.90
39067;DHT22;24821;51.988;6.020;2022-10-16T05:13:59;13.60;99.90
39067;DHT22;24821;51.988;6.020;2022-10-16T05:16:25;13.70;99.90
39067;DHT22;24821;51.988;6.020;2022-10-16T05:18:51;13.70;99.90
39067;DHT22;24821;51.988;6.020;2022-10-16T05:21:17;13.70;99.90
39067;DHT22;24821;51.988;6.020;2022-10-16T05:23:42;13.70;99.90
39067;DHT22;24821;51.988;6.020;2022-10-16T05:26:08;13.60;99.90
39067;DHT22;24821;51.988;6.020;2022-10-16T05:28:33;13.60;99.90
39067;DHT22;24821;51.988;6.020;2022-10-16T05:30:59;13.60;99.90
39067;DHT22;24821;51.988;6.020;2022-10-16T05:33:29;13.50;99.90
39067;DHT22;24821;51.988;6.020;2022-10-16T05:35:54;13.50;99.90
39067;DHT22;24821;51.988;6.020;2022-10-16T05:38:20;13.50;99.90
39067;DHT22;24821;51.988;6.020;2022-10-16T05:40:51;13.50;99.90
39067;DHT22;24821;51.988;6.020;2022-10-16T05:43:18;13.40;99.90
39067;DHT22;24821;51.988;6.020;2022-10-16T05:45:43;13.40;99.90
39067;DHT22;24821;51.988;6.020;2022-10-16T05:48:09;13.30;99.90
39067;DHT22;24821;51.988;6.020;2022-10-16T05:50:34;13.30;99.90
39067;DHT22;24821;51.988;6.020;2022-10-16T05:53:00;13.30;99.90
39067;DHT22;24821;51.988;6.020;2022-10-16T05:55:25;13.20;99.90
39067;DHT22;24821;51.988;6.020;2022-10-16T05:57:54;13.20;99.90
39067;DHT22;24821;51.988;6.020;2022-10-16T06:00:19;13.20;99.90
39067;DHT22;24821;51.988;6.020;2022-10-16T06:02:45;13.20;99.90
39067;DHT22;24821;51.988;6.020;2022-10-16T06:05:11;13.20;99.90
39067;DHT22;24821;51.988;6.020;2022-10-16T06:07:36;13.30;99.90
39067;DHT22;24821;51.988;6.020;2022-10-16T06:10:03;13.30;99.90
39067;DHT22;24821;51.988;6.020;2022-10-16T06:12:29;13.30;99.90
39067;DHT22;24821;51.988;6.020;2022-10-16T06:14:55;13.20;99.90
39067;DHT22;24821;51.988;6.020;2022-10-16T06:17:20;13.20;99.90
39067;DHT22;24821;51.988;6.020;2022-10-16T06:19:46;13.20;99.90
39067;DHT22;24821;51.988;6.020;2022-10-16T06:22:11;13.20;99.90
39067;DHT22;24821;51.988;6.020;2022-10-16T06:24:37;13.20;99.90
39067;DHT22;24821;51.988;6.020;2022-10-16T06:27:04;13.10;99.90
39067;DHT22;24821;51.988;6.020;2022-10-16T06:29:29;13.10;99.90
39067;DHT22;24821;51.988;6.020;2022-10-16T06:31:55;13.10;99.90
39067;DHT22;24821;51.988;6.020;2022-10-16T06:34:20;13.10;99.90
39067;DHT22;24821;51.988;6.020;2022-10-16T06:36:46;13.20;99.90
39067;DHT22;24821;51.988;6.020;2022-10-16T06:39:11;13.20;99.90
39067;DHT22;24821;51.988;6.020;2022-10-16T06:41:37;13.20;99.90
39067;DHT22;24821;51.988;6.020;2022-10-16T06:44:06;13.30;99.90
39067;DHT22;24821;51.988;6.020;2022-10-16T06:46:33;13.40;99.90
39067;DHT22;24821;51.988;6.020;2022-10-16T06:48:58;13.40;99.90
39067;DHT22;24821;51.988;6.020;2022-10-16T06:51:25;13.40;99.90
39067;DHT22;24821;51.988;6.020;2022-10-16T06:53:54;13.50;99.90
39067;DHT22;24821;51.988;6.020;2022-10-16T06:56:24;13.60;99.90
39067;DHT22;24821;51.988;6.020;2022-10-16T06:58:50;13.60;99.90
39067;DHT22;24821;51.988;6.020;2022-10-16T07:01:18;13.70;99.90
39067;DHT22;24821;51.988;6.020;2022-10-16T07:03:45;13.80;99.90
39067;DHT22;24821;51.988;6.020;2022-10-16T07:06:14;13.90;99.90
39067;DHT22;24821;51.988;6.020;2022-10-16T07:08:41;14.00;99.90
39067;DHT22;24821;51.988;6.020;2022-10-16T07:11:09;14.10;99.90
39067;DHT22;24821;51.988;6.020;2022-10-16T07:13:36;14.20;99.90
39067;DHT22;24821;51.988;6.020;2022-10-16T07:16:10;14.20;99.90
39067;DHT22;24821;51.988;6.020;2022-10-16T07:18:36;14.20;99.90
39067;DHT22;24821;51.988;6.020;2022-10-16T07:21:09;14.20;99.90
39067;DHT22;24821;51.988;6.020;2022-10-16T07:23:34;14.30;99.90
39067;DHT22;24821;51.988;6.020;2022-10-16T07:26:00;14.30;99.90
39067;DHT22;24821;51.988;6.020;2022-10-16T07:28:26;14.40;99.90
39067;DHT22;24821;51.988;6.020;2022-10-16T07:30:52;14.40;99.90
39067;DHT22;24821;51.988;6.020;2022-10-16T07:33:18;14.40;99.90
39067;DHT22;24821;51.988;6.020;2022-10-16T07:35:53;14.40;99.90
39067;DHT22;24821;51.988;6.020;2022-10-16T07:38:20;14.50;99.90
39067;DHT22;24821;51.988;6.020;2022-10-16T07:40:46;14.50;99.90
39067;DHT22;24821;51.988;6.020;2022-10-16T07:43:11;14.50;99.90
39067;DHT22;24821;51.988;6.020;2022-10-16T07:45:37;14.60;99.90
39067;DHT22;24821;51.988;6.020;2022-10-16T07:48:03;14.70;99.90
39067;DHT22;24821;51.988;6.020;2022-10-16T07:50:29;14.70;99.90
39067;DHT22;24821;51.988;6.020;2022-10-16T07:52:54;14.80;99.90
39067;DHT22;24821;51.988;6.020;2022-10-16T07:55:20;14.80;99.90
39067;DHT22;24821;51.988;6.020;2022-10-16T07:57:45;14.90;99.90
39067;DHT22;24821;51.988;6.020;2022-10-16T08:00:11;14.90;99.90
39067;DHT22;24821;51.988;6.020;2022-10-16T08:02:39;14.90;99.90
39067;DHT22;24821;51.988;6.020;2022-10-16T08:05:06;15.00;99.90
39067;DHT22;24821;51.988;6.020;2022-10-16T08:07:31;15.10;99.90
39067;DHT22;24821;51.988;6.020;2022-10-16T08:09:57;15.20;99.90
39067;DHT22;24821;51.988;6.020;2022-10-16T08:12:25;15.20;99.90
39067;DHT22;24821;51.988;6.020;2022-10-16T08:14:51;15.20;99.90
39067;DHT22;24821;51.988;6.020;2022-10-16T08:17:16;15.20;99.90
39067;DHT22;24821;51.988;6.020;2022-10-16T08:19:46;15.20;99.90
39067;DHT22;24821;51.988;6.020;2022-10-16T08:22:13;15.20;99.90
39067;DHT22;24821;51.988;6.020;2022-10-16T08:24:38;15.20;99.90
39067;DHT22;24821;51.988;6.020;2022-10-16T08:27:04;15.20;99.90
39067;DHT22;24821;51.988;6.020;2022-10-16T08:29:29;15.30;99.90
39067;DHT22;24821;51.988;6.020;2022-10-16T08:31:55;15.30;99.90
39067;DHT22;24821;51.988;6.020;2022-10-16T08:34:20;15.30;99.90
39067;DHT22;24821;51.988;6.020;2022-10-16T08:36:46;15.40;99.90
39067;DHT22;24821;51.988;6.020;2022-10-16T08:39:11;15.50;99.90
39067;DHT22;24821;51.988;6.020;2022-10-16T08:41:49;15.50;99.90
39067;DHT22;24821;51.988;6.020;2022-10-16T08:44:29;15.60;99.90
39067;DHT22;24821;51.988;6.020;2022-10-16T08:47:20;15.60;99.90
39067;DHT22;24821;51.988;6.020;2022-10-16T08:50:02;15.60;99.90
39067;DHT22;24821;51.988;6.020;2022-10-16T08:52:35;15.70;99.90
39067;DHT22;24821;51.988;6.020;2022-10-16T08:55:04;15.70;99.90
39067;DHT22;24821;51.988;6.020;2022-10-16T08:57:30;15.70;99.90
39067;DHT22;24821;51.988;6.020;2022-10-16T09:00:08;15.90;99.90
39067;DHT22;24821;51.988;6.020;2022-10-16T09:08:39;16.10;99.90
39067;DHT22;24821;51.988;6.020;2022-10-16T09:11:44;16.10;99.90
39067;DHT22;24821;51.988;6.020;2022-10-16T09:16:40;16.10;99.90
39067;DHT22;24821;51.988;6.020;2022-10-16T09:19:18;16.20;99.90
39067;DHT22;24821;51.988;6.020;2022-10-16T09:21:46;16.20;99.90
39067;DHT22;24821;51.988;6.020;2022-10-16T09:24:14;16.30;99.90
39067;DHT22;24821;51.988;6.020;2022-10-16T09:26:40;16.30;99.90
39067;DHT22;24821;51.988;6.020;2022-10-16T09:29:06;16.40;99.90
39067;DHT22;24821;51.988;6.020;2022-10-16T09:31:31;16.40;99.90
39067;DHT22;24821;51.988;6.020;2022-10-16T09:34:00;16.40;99.90
39067;DHT22;24821;51.988;6.020;2022-10-16T09:36:39;16.50;99.90
39067;DHT22;24821;51.988;6.020;2022-10-16T09:39:09;16.40;99.90
39067;DHT22;24821;51.988;6.020;2022-10-16T09:41:36;16.50;99.90
39067;DHT22;24821;51.988;6.020;2022-10-16T09:44:05;16.50;99.90
39067;DHT22;24821;51.988;6.020;2022-10-16T09:46:36;16.60;99.90
39067;DHT22;24821;51.988;6.020;2022-10-16T09:49:16;16.60;99.90
39067;DHT22;24821;51.988;6.020;2022-10-16T09:51:43;16.60;99.90
39067;DHT22;24821;51.988;6.020;2022-10-16T09:56:36;16.60;99.90
39067;DHT22;24821;51.988;6.020;2022-10-16T09:59:14;16.70;99.90
39067;DHT22;24821;51.988;6.020;2022-10-16T10:01:46;16.70;99.90
39067;DHT22;24821;51.988;6.020;2022-10-16T10:04:12;16.70;99.90
39067;DHT22;24821;51.988;6.020;2022-10-16T10:06:44;16.80;99.90
39067;DHT22;24821;51.988;6.020;2022-10-16T10:09:23;16.80;99.90
39067;DHT22;24821;51.988;6.020;2022-10-16T10:11:52;17.00;99.90
39067;DHT22;24821;51.988;6.020;2022-10-16T10:16:47;17.10;99.90
39067;DHT22;24821;51.988;6.020;2022-10-16T10:19:18;17.20;99.90
39067;DHT22;24821;51.988;6.020;2022-10-16T10:21:45;17.30;99.90
39067;DHT22;24821;51.988;6.020;2022-10-16T10:24:15;17.40;99.80
39067;DHT22;24821;51.988;6.020;2022-10-16T10:27:00;17.50;99.70
39067;DHT22;24821;51.988;6.020;2022-10-16T10:35:02;17.60;99.20
39067;DHT22;24821;51.988;6.020;2022-10-16T10:37:41;17.60;98.90
39067;DHT22;24821;51.988;6.020;2022-10-16T10:40:34;17.60;99.10
39067;DHT22;24821;51.988;6.020;2022-10-16T10:43:06;17.70;98.70
39067;DHT22;24821;51.988;6.020;2022-10-16T10:45:43;17.80;98.40
39067;DHT22;24821;51.988;6.020;2022-10-16T10:48:38;17.90;98.30
39067;DHT22;24821;51.988;6.020;2022-10-16T10:51:12;17.80;98.20
39067;DHT22;24821;51.988;6.020;2022-10-16T10:53:46;17.80;98.50
39067;DHT22;24821;51.988;6.020;2022-10-16T10:58:56;18.00;97.70
39067;DHT22;24821;51.988;6.020;2022-10-16T11:01:39;18.00;97.40
39067;DHT22;24821;51.988;6.020;2022-10-16T11:07:01;17.90;96.00
39067;DHT22;24821;51.988;6.020;2022-10-16T11:09:35;17.90;96.40
39067;DHT22;24821;51.988;6.020;2022-10-16T11:14:46;18.00;96.50
39067;DHT22;24821;51.988;6.020;2022-10-16T11:17:23;18.10;96.40
39067;DHT22;24821;51.988;6.020;2022-10-16T11:19:58;18.10;95.90
39067;DHT22;24821;51.988;6.020;2022-10-16T11:25:39;18.30;95.70
39067;DHT22;24821;51.988;6.020;2022-10-16T11:28:22;18.30;95.50
39067;DHT22;24821;51.988;6.020;2022-10-16T11:36:00;18.30;94.90
39067;DHT22;24821;51.988;6.020;2022-10-16T11:38:55;18.30;95.00
39067;DHT22;24821;51.988;6.020;2022-10-16T11:41:34;18.30;94.80
39067;DHT22;24821;51.988;6.020;2022-10-16T11:49:55;18.50;94.30
39067;DHT22;24821;51.988;6.020;2022-10-16T11:52:52;18.50;94.40
39067;DHT22;24821;51.988;6.020;2022-10-16T11:55:24;18.50;94.50
39067;DHT22;24821;51.988;6.020;2022-10-16T11:57:54;18.50;94.40
39067;DHT22;24821;51.988;6.020;2022-10-16T12:00:34;18.50;94.50
39067;DHT22;24821;51.988;6.020;2022-10-16T12:04:00;18.60;94.60
39067;DHT22;24821;51.988;6.020;2022-10-16T12:08:51;18.60;94.10
39067;DHT22;24821;51.988;6.020;2022-10-16T12:14:03;18.80;93.70
39067;DHT22;24821;51.988;6.020;2022-10-16T12:16:28;18.80;93.30
39067;DHT22;24821;51.988;6.020;2022-10-16T12:19:14;18.80;93.50
39067;DHT22;24821;51.988;6.020;2022-10-16T12:21:41;18.80;93.30
39067;DHT22;24821;51.988;6.020;2022-10-16T12:26:52;18.90;93.50
39067;DHT22;24821;51.988;6.020;2022-10-16T12:31:58;19.00;93.60
39067;DHT22;24821;51.988;6.020;2022-10-16T12:34:41;19.00;93.80
39067;DHT22;24821;51.988;6.020;2022-10-16T12:37:25;19.10;93.40
39067;DHT22;24821;51.988;6.020;2022-10-16T12:39:53;19.20;93.30
39067;DHT22;24821;51.988;6.020;2022-10-16T12:44:51;19.10;92.50
39067;DHT22;24821;51.988;6.020;2022-10-16T12:47:47;19.10;92.40
39067;DHT22;24821;51.988;6.020;2022-10-16T12:50:43;19.10;92.50
39067;DHT22;24821;51.988;6.020;2022-10-16T12:53:24;19.20;92.80
39067;DHT22;24821;51.988;6.020;2022-10-16T13:01:57;19.30;92.90
39067;DHT22;24821;51.988;6.020;2022-10-16T13:04:35;19.30;92.90
39067;DHT22;24821;51.988;6.020;2022-10-16T13:09:50;19.30;92.00
39067;DHT22;24821;51.988;6.020;2022-10-16T13:12:30;19.30;92.30
39067;DHT22;24821;51.988;6.020;2022-10-16T13:15:16;19.20;92.40
39067;DHT22;24821;51.988;6.020;2022-10-16T13:18:05;19.10;92.50
39067;DHT22;24821;51.988;6.020;2022-10-16T13:20:46;19.00;92.90
39067;DHT22;24821;51.988;6.020;2022-10-16T13:23:23;19.00;92.70
39067;DHT22;24821;51.988;6.020;2022-10-16T13:26:05;19.00;93.00
39067;DHT22;24821;51.988;6.020;2022-10-16T13:28:34;18.90;93.40
39067;DHT22;24821;51.988;6.020;2022-10-16T13:31:01;18.80;93.20
39067;DHT22;24821;51.988;6.020;2022-10-16T13:33:36;18.80;93.40
39067;DHT22;24821;51.988;6.020;2022-10-16T13:36:04;18.90;93.60
39067;DHT22;24821;51.988;6.020;2022-10-16T13:38:35;18.90;93.90
39067;DHT22;24821;51.988;6.020;2022-10-16T13:41:04;19.00;93.90
39067;DHT22;24821;51.988;6.020;2022-10-16T13:43:50;19.10;93.80
39067;DHT22;24821;51.988;6.020;2022-10-16T13:46:19;19.20;93.50
39067;DHT22;24821;51.988;6.020;2022-10-16T13:49:10;19.30;92.60
39067;DHT22;24821;51.988;6.020;2022-10-16T13:51:36;19.40;91.50
39067;DHT22;24821;51.988;6.020;2022-10-16T13:54:02;19.30;91.30
39067;DHT22;24821;51.988;6.020;2022-10-16T13:56:29;19.30;91.20
39067;DHT22;24821;51.988;6.020;2022-10-16T13:59:04;19.30;91.60
39067;DHT22;24821;51.988;6.020;2022-10-16T14:01:51;19.30;91.80
39067;DHT22;24821;51.988;6.020;2022-10-16T14:04:19;19.30;91.50
39067;DHT22;24821;51.988;6.020;2022-10-16T14:06:46;19.20;91.90
39067;DHT22;24821;51.988;6.020;2022-10-16T14:09:26;19.20;92.10
39067;DHT22;24821;51.988;6.020;2022-10-16T14:12:03;19.20;92.10
39067;DHT22;24821;51.988;6.020;2022-10-16T14:14:43;19.20;92.30
39067;DHT22;24821;51.988;6.020;2022-10-16T14:17:20;19.10;92.40
39067;DHT22;24821;51.988;6.020;2022-10-16T14:19:48;19.10;92.70
39067;DHT22;24821;51.988;6.020;2022-10-16T14:22:41;19.00;92.60
39067;DHT22;24821;51.988;6.020;2022-10-16T14:25:26;19.00;92.70
39067;DHT22;24821;51.988;6.020;2022-10-16T14:28:17;19.00;92.90
39067;DHT22;24821;51.988;6.020;2022-10-16T14:30:54;19.00;92.90
39067;DHT22;24821;51.988;6.020;2022-10-16T14:36:13;19.00;92.90
39067;DHT22;24821;51.988;6.020;2022-10-16T14:38:41;19.00;92.60
39067;DHT22;24821;51.988;6.020;2022-10-16T14:41:08;19.00;92.90
39067;DHT22;24821;51.988;6.020;2022-10-16T14:43:39;18.90;93.10
39067;DHT22;24821;51.988;6.020;2022-10-16T14:46:13;18.90;93.30
39067;DHT22;24821;51.988;6.020;2022-10-16T14:48:47;19.00;93.30
39067;DHT22;24821;51.988;6.020;2022-10-16T14:51:15;19.10;93.40
39067;DHT22;24821;51.988;6.020;2022-10-16T14:53:41;19.10;93.60
39067;DHT22;24821;51.988;6.020;2022-10-16T14:56:09;19.00;93.70
39067;DHT22;24821;51.988;6.020;2022-10-16T14:58:39;18.90;93.70
39067;DHT22;24821;51.988;6.020;2022-10-16T15:01:05;18.80;93.80
39067;DHT22;24821;51.988;6.020;2022-10-16T15:03:32;18.80;94.00
39067;DHT22;24821;51.988;6.020;2022-10-16T15:05:57;18.70;94.10
39067;DHT22;24821;51.988;6.020;2022-10-16T15:08:23;18.60;94.10
39067;DHT22;24821;51.988;6.020;2022-10-16T15:10:48;18.60;94.10
39067;DHT22;24821;51.988;6.020;2022-10-16T15:13:14;18.70;94.20
39067;DHT22;24821;51.988;6.020;2022-10-16T15:15:47;18.80;94.30
39067;DHT22;24821;51.988;6.020;2022-10-16T15:18:14;18.80;94.20
39067;DHT22;24821;51.988;6.020;2022-10-16T15:20:45;18.80;94.30
39067;DHT22;24821;51.988;6.020;2022-10-16T15:23:16;18.70;94.30
39067;DHT22;24821;51.988;6.020;2022-10-16T15:25:53;18.70;94.40
39067;DHT22;24821;51.988;6.020;2022-10-16T15:28:19;18.60;94.60
39067;DHT22;24821;51.988;6.020;2022-10-16T15:30:46;18.50;94.80
39067;DHT22;24821;51.988;6.020;2022-10-16T15:33:23;18.40;95.00
39067;DHT22;24821;51.988;6.020;2022-10-16T15:35:50;18.40;95.20
39067;DHT22;24821;51.988;6.020;2022-10-16T15:38:17;18.30;95.40
39067;DHT22;24821;51.988;6.020;2022-10-16T15:40:43;18.20;95.50
39067;DHT22;24821;51.988;6.020;2022-10-16T15:43:09;18.10;95.60
39067;DHT22;24821;51.988;6.020;2022-10-16T15:45:35;18.10;95.80
39067;DHT22;24821;51.988;6.020;2022-10-16T15:48:01;18.00;96.00
39067;DHT22;24821;51.988;6.020;2022-10-16T15:50:26;17.90;96.20
39067;DHT22;24821;51.988;6.020;2022-10-16T15:52:52;17.80;96.30
39067;DHT22;24821;51.988;6.020;2022-10-16T15:55:18;17.80;96.60
39067;DHT22;24821;51.988;6.020;2022-10-16T15:57:44;17.80;96.50
39067;DHT22;24821;51.988;6.020;2022-10-16T16:00:13;17.80;96.60
39067;DHT22;24821;51.988;6.020;2022-10-16T16:02:40;17.80;96.70
39067;DHT22;24821;51.988;6.020;2022-10-16T16:05:06;17.80;96.70
39067;DHT22;24821;51.988;6.020;2022-10-16T16:07:34;17.70;96.70
39067;DHT22;24821;51.988;6.020;2022-10-16T16:10:01;17.80;96.80
39067;DHT22;24821;51.988;6.020;2022-10-16T16:12:26;17.70;96.80
39067;DHT22;24821;51.988;6.020;2022-10-16T16:14:52;17.60;96.90
39067;DHT22;24821;51.988;6.020;2022-10-16T16:17:17;17.60;97.00
39067;DHT22;24821;51.988;6.020;2022-10-16T16:19:43;17.60;97.20
39067;DHT22;24821;51.988;6.020;2022-10-16T16:22:09;17.50;97.30
39067;DHT22;24821;51.988;6.020;2022-10-16T16:24:34;17.50;97.40
39067;DHT22;24821;51.988;6.020;2022-10-16T16:27:00;17.50;97.50
39067;DHT22;24821;51.988;6.020;2022-10-16T16:29:25;17.40;97.60
39067;DHT22;24821;51.988;6.020;2022-10-16T16:31:51;17.40;97.70
39067;DHT22;24821;51.988;6.020;2022-10-16T16:34:23;17.30;97.70
39067;DHT22;24821;51.988;6.020;2022-10-16T16:36:49;17.20;97.90
39067;DHT22;24821;51.988;6.020;2022-10-16T16:39:15;17.20;97.90
39067;DHT22;24821;51.988;6.020;2022-10-16T16:41:41;17.20;98.00
39067;DHT22;24821;51.988;6.020;2022-10-16T16:44:08;17.10;98.10
39067;DHT22;24821;51.988;6.020;2022-10-16T16:46:35;17.10;98.20
39067;DHT22;24821;51.988;6.020;2022-10-16T16:49:02;17.00;98.30
39067;DHT22;24821;51.988;6.020;2022-10-16T16:51:28;17.00;98.40
39067;DHT22;24821;51.988;6.020;2022-10-16T16:53:55;16.90;98.50
39067;DHT22;24821;51.988;6.020;2022-10-16T16:56:22;16.80;98.60
39067;DHT22;24821;51.988;6.020;2022-10-16T16:58:50;16.80;98.70
39067;DHT22;24821;51.988;6.020;2022-10-16T17:01:17;16.70;98.80
39067;DHT22;24821;51.988;6.020;2022-10-16T17:03:44;16.70;98.90
39067;DHT22;24821;51.988;6.020;2022-10-16T17:06:11;16.60;99.00
39067;DHT22;24821;51.988;6.020;2022-10-16T17:08:38;16.70;99.10